Time;durP1;ratioP1;P1;durP2;ratioP2;P2;SDS_P1;SDS_P2;PMS_P1;PMS_P2;Temp;Humidity;BMP_temperature;BMP_pressure;BME280_temperature;BME280_humidity;BME280_pressure;Samples;Min_cycle;Max_cycle;Signal;HPM_P1;HPM_P2
2021/11/15 00:01:25;;;;;;;2.28;1.23;;;1.20;91.80;;;;;;5070037;28;20024;-85
2021/11/15 00:03:51;;;;;;;1.77;1.20;;;1.20;91.60;;;;;;5057013;28;20060;-85
2021/11/15 00:06:16;;;;;;;1.83;1.17;;;1.30;91.50;;;;;;5055950;28;20021;-86
2021/11/15 00:08:43;;;;;;;3.08;1.55;;;1.30;90.90;;;;;;5058204;28;20021;-91
2021/11/15 00:11:09;;;;;;;2.78;1.98;;;1.30;91.00;;;;;;5075878;28;20047;-90
2021/11/15 00:13:35;;;;;;;1.60;1.35;;;1.40;91.10;;;;;;5078425;28;20050;-88
2021/11/15 00:16:01;;;;;;;3.03;1.63;;;1.30;90.70;;;;;;5087573;28;20016;-89
2021/11/15 00:18:27;;;;;;;2.35;1.73;;;1.30;90.80;;;;;;5083709;28;20025;-89
2021/11/15 00:20:53;;;;;;;1.90;1.70;;;1.30;90.40;;;;;;5076735;28;20058;-88
2021/11/15 00:23:19;;;;;;;3.30;1.45;;;1.30;90.40;;;;;;5077778;28;20043;-86
2021/11/15 00:25:45;;;;;;;1.77;1.27;;;1.30;90.40;;;;;;5076815;28;20466;-84
2021/11/15 00:28:11;;;;;;;2.58;1.23;;;1.30;90.50;;;;;;5076804;28;20096;-87
2021/11/15 00:30:37;;;;;;;2.22;1.30;;;1.30;90.60;;;;;;5078502;28;20482;-86
2021/11/15 00:33:03;;;;;;;1.08;1.02;;;1.30;90.70;;;;;;5078240;28;20031;-88
2021/11/15 00:35:29;;;;;;;1.50;1.23;;;1.30;90.40;;;;;;5086404;28;20016;-89
2021/11/15 00:37:56;;;;;;;2.85;1.17;;;1.30;90.70;;;;;;5082047;28;20028;-90
2021/11/15 00:40:22;;;;;;;1.20;1.10;;;1.30;90.70;;;;;;5079635;28;20016;-87
2021/11/15 00:42:48;;;;;;;2.35;1.33;;;1.30;90.90;;;;;;5079104;28;20048;-87
2021/11/15 00:45:16;;;;;;;1.17;0.90;;;1.40;90.60;;;;;;5079297;28;20024;-90
2021/11/15 00:47:46;;;;;;;2.03;1.55;;;1.40;90.50;;;;;;5089177;28;20036;-92
2021/11/15 00:50:15;;;;;;;1.33;0.70;;;1.40;90.50;;;;;;5079974;28;20104;-89
2021/11/15 00:52:41;;;;;;;1.70;1.25;;;1.40;90.70;;;;;;5077377;28;20098;-89
2021/11/15 00:55:07;;;;;;;2.85;1.10;;;1.50;91.00;;;;;;5078041;28;20035;-88
2021/11/15 00:57:33;;;;;;;3.13;1.33;;;1.40;90.50;;;;;;5074579;28;20428;-89
2021/11/15 00:59:59;;;;;;;1.05;0.85;;;1.50;90.60;;;;;;5075600;28;20021;-87
2021/11/15 01:02:27;;;;;;;1.17;0.77;;;1.50;90.40;;;;;;5076621;28;20036;-90
2021/11/15 01:04:53;;;;;;;2.35;0.90;;;1.50;90.00;;;;;;5079311;28;20043;-87
2021/11/15 01:07:19;;;;;;;2.83;0.85;;;1.50;89.90;;;;;;5079466;28;20020;-89
2021/11/15 01:09:45;;;;;;;0.88;0.70;;;1.40;89.10;;;;;;5078555;28;20076;-91
2021/11/15 01:12:11;;;;;;;0.70;0.60;;;1.40;88.70;;;;;;5077337;28;20162;-86
2021/11/15 01:14:37;;;;;;;0.60;0.40;;;1.40;87.90;;;;;;5075770;28;20025;-89
2021/11/15 01:17:03;;;;;;;1.45;0.77;;;1.30;85.80;;;;;;5075832;28;20472;-86
2021/11/15 01:19:30;;;;;;;0.50;0.50;;;1.30;85.90;;;;;;5077824;28;20021;-86
2021/11/15 01:21:56;;;;;;;1.65;0.70;;;1.40;86.20;;;;;;5083658;28;20016;-87
2021/11/15 01:24:21;;;;;;;1.08;0.60;;;1.40;86.40;;;;;;5087645;28;20025;-82
2021/11/15 01:26:47;;;;;;;0.55;0.55;;;1.40;86.20;;;;;;5078147;28;20025;-86
2021/11/15 01:29:13;;;;;;;1.13;0.47;;;1.40;85.90;;;;;;5093630;28;20024;-83
2021/11/15 01:31:39;;;;;;;0.55;0.55;;;1.40;86.00;;;;;;5087339;28;20050;-85
2021/11/15 01:34:08;;;;;;;1.25;0.70;;;1.40;87.00;;;;;;5094298;28;20040;-88
2021/11/15 01:36:34;;;;;;;1.38;0.90;;;1.40;86.40;;;;;;5063532;28;20044;-90
2021/11/15 01:39:03;;;;;;;1.20;0.93;;;1.50;87.40;;;;;;5079321;28;20028;-89
2021/11/15 01:41:29;;;;;;;1.35;0.90;;;1.40;88.70;;;;;;5098003;28;20045;-91
2021/11/15 01:43:56;;;;;;;1.83;0.73;;;1.30;89.60;;;;;;5107972;28;20025;-87
2021/11/15 01:46:25;;;;;;;0.73;0.70;;;1.30;90.50;;;;;;5099284;28;20021;-89
2021/11/15 01:48:51;;;;;;;1.00;0.70;;;1.20;90.40;;;;;;5098764;28;20035;-83
2021/11/15 01:51:18;;;;;;;0.90;0.73;;;1.20;90.60;;;;;;5098886;28;20033;-92
2021/11/15 01:53:44;;;;;;;0.70;0.65;;;1.20;90.50;;;;;;5095022;28;20025;-90
2021/11/15 01:56:11;;;;;;;1.35;0.80;;;1.20;90.30;;;;;;5087669;28;20056;-92
2021/11/15 01:58:38;;;;;;;0.65;0.65;;;1.20;90.20;;;;;;5081129;28;20059;-89
2021/11/15 02:01:04;;;;;;;1.27;0.98;;;1.10;90.10;;;;;;5098804;28;20020;-91
2021/11/15 02:03:32;;;;;;;0.82;0.68;;;1.20;90.20;;;;;;5086419;28;20056;-92
2021/11/15 02:06:02;;;;;;;0.60;0.60;;;1.20;90.40;;;;;;5063010;28;20037;-92
2021/11/15 02:08:29;;;;;;;0.70;0.60;;;1.20;90.40;;;;;;5061507;28;20025;-91
2021/11/15 02:10:56;;;;;;;0.95;0.80;;;1.20;90.60;;;;;;5069499;28;20043;-93
2021/11/15 02:13:24;;;;;;;0.85;0.60;;;1.20;90.60;;;;;;5060315;28;20024;-88
2021/11/15 02:15:53;;;;;;;1.40;0.88;;;1.10;90.70;;;;;;5059316;28;20029;-84
2021/11/15 02:18:20;;;;;;;1.20;0.70;;;1.10;90.80;;;;;;5072030;28;20041;-91
2021/11/15 02:21:10;;;;;;;1.42;1.00;;;1.10;91.00;;;;;;5067451;28;20067;-91
2021/11/15 02:23:42;;;;;;;2.08;0.80;;;1.00;91.30;;;;;;5015464;28;20082;-90
2021/11/15 02:26:10;;;;;;;1.80;0.73;;;1.00;91.60;;;;;;5014922;28;20037;-90
2021/11/15 02:28:41;;;;;;;1.23;0.80;;;0.90;91.70;;;;;;5010016;28;20443;-90
2021/11/15 02:31:12;;;;;;;1.25;0.60;;;0.90;91.50;;;;;;5005955;28;20045;-91
2021/11/15 02:33:38;;;;;;;1.23;0.73;;;0.90;91.50;;;;;;4985955;28;20397;-91
2021/11/15 02:36:07;;;;;;;1.02;0.80;;;0.90;91.20;;;;;;5003786;28;20451;-92
2021/11/15 02:38:34;;;;;;;0.70;0.60;;;1.00;91.20;;;;;;5006599;28;20034;-91
2021/11/15 02:41:00;;;;;;;1.38;0.55;;;1.10;91.10;;;;;;5003611;28;20104;-91
2021/11/15 02:43:27;;;;;;;1.07;0.67;;;1.10;91.10;;;;;;4994430;28;20042;-85
2021/11/15 02:45:52;;;;;;;0.82;0.70;;;1.10;91.30;;;;;;4992453;28;20529;-85
2021/11/15 02:48:20;;;;;;;1.58;0.70;;;1.10;91.10;;;;;;4992979;28;20038;-85
2021/11/15 02:50:46;;;;;;;0.52;0.50;;;1.10;91.00;;;;;;5004363;28;20109;-85
2021/11/15 02:53:13;;;;;;;2.25;0.60;;;1.20;90.90;;;;;;5032056;28;20091;-85
2021/11/15 02:55:39;;;;;;;1.75;0.60;;;1.20;90.80;;;;;;5035956;28;20037;-84
2021/11/15 02:58:08;;;;;;;0.55;0.55;;;1.10;90.10;;;;;;5032628;28;20128;-86
2021/11/15 03:00:45;;;;;;;1.65;0.88;;;1.10;90.10;;;;;;5055013;28;20029;-87
2021/11/15 03:03:13;;;;;;;2.05;0.45;;;1.20;90.20;;;;;;5075930;28;20043;-87
2021/11/15 03:05:42;;;;;;;3.22;1.02;;;1.10;90.00;;;;;;5078646;28;20099;-89
2021/11/15 03:08:09;;;;;;;0.50;0.50;;;1.20;90.10;;;;;;5078902;28;20473;-90
2021/11/15 03:10:38;;;;;;;0.80;0.80;;;1.20;90.20;;;;;;5076837;28;20368;-87
2021/11/15 03:13:05;;;;;;;0.85;0.68;;;1.20;90.30;;;;;;5063826;28;20081;-89
2021/11/15 03:15:36;;;;;;;0.60;0.60;;;1.20;90.30;;;;;;5066016;28;20015;-89
2021/11/15 03:18:08;;;;;;;1.15;0.85;;;1.20;90.30;;;;;;5064231;28;20047;-90
2021/11/15 03:20:38;;;;;;;2.05;1.15;;;1.20;90.50;;;;;;5060040;28;20030;-88
2021/11/15 03:23:09;;;;;;;0.93;0.55;;;1.30;90.50;;;;;;5073906;28;20092;-83
2021/11/15 03:25:36;;;;;;;1.75;0.80;;;1.30;90.60;;;;;;5081081;28;20039;-89
2021/11/15 03:28:02;;;;;;;1.13;0.75;;;1.30;90.60;;;;;;5071988;28;20048;-89
2021/11/15 03:30:28;;;;;;;0.85;0.77;;;1.20;90.80;;;;;;5059621;28;20051;-88
2021/11/15 03:32:55;;;;;;;0.88;0.82;;;1.20;90.90;;;;;;5059471;28;20039;-88
2021/11/15 03:35:22;;;;;;;0.93;0.80;;;1.20;91.10;;;;;;5058482;28;20013;-88
2021/11/15 03:37:48;;;;;;;1.33;1.00;;;1.20;91.10;;;;;;5058492;28;20501;-88
2021/11/15 03:40:20;;;;;;;2.33;1.08;;;1.20;91.10;;;;;;5066213;28;20029;-89
2021/11/15 03:42:50;;;;;;;1.17;1.05;;;1.20;91.10;;;;;;5070463;28;20526;-88
2021/11/15 03:45:17;;;;;;;1.30;1.20;;;1.10;91.30;;;;;;5067056;28;20044;-87
2021/11/15 03:47:43;;;;;;;1.58;1.02;;;1.10;91.70;;;;;;5066102;28;20419;-89
2021/11/15 03:50:10;;;;;;;1.63;1.10;;;1.10;91.90;;;;;;5064496;28;20025;-88
2021/11/15 03:52:38;;;;;;;1.85;0.82;;;1.10;92.10;;;;;;5064422;28;20020;-86
2021/11/15 03:55:06;;;;;;;1.02;0.80;;;1.10;92.00;;;;;;5059750;28;20040;-87
2021/11/15 03:57:32;;;;;;;0.85;0.70;;;1.10;91.90;;;;;;5062570;28;20029;-89
2021/11/15 03:59:58;;;;;;;0.90;0.70;;;1.20;91.80;;;;;;5065872;28;20028;-88
2021/11/15 04:02:27;;;;;;;1.00;0.68;;;1.20;91.60;;;;;;5078709;28;20087;-82
2021/11/15 04:05:01;;;;;;;1.58;1.27;;;1.20;91.30;;;;;;5077341;28;20005;-88
2021/11/15 04:07:30;;;;;;;1.17;0.90;;;1.10;91.10;;;;;;5077028;28;20080;-88
2021/11/15 04:09:59;;;;;;;1.08;0.88;;;1.10;91.20;;;;;;5063570;28;20051;-89
2021/11/15 04:12:27;;;;;;;1.08;0.80;;;1.10;91.30;;;;;;5078241;28;20031;-89
2021/11/15 04:14:53;;;;;;;1.25;0.82;;;1.10;91.30;;;;;;5078529;28;20452;-89
2021/11/15 04:17:20;;;;;;;1.98;1.10;;;1.10;91.30;;;;;;5077858;28;20381;-90
2021/11/15 04:19:48;;;;;;;1.50;1.00;;;1.10;91.30;;;;;;5092518;28;20107;-86
2021/11/15 04:22:15;;;;;;;0.73;0.70;;;1.10;91.30;;;;;;5083702;28;20501;-89
2021/11/15 04:24:41;;;;;;;1.10;0.90;;;1.20;91.30;;;;;;5078334;28;20355;-87
2021/11/15 04:27:08;;;;;;;1.20;0.82;;;1.20;91.30;;;;;;5079379;28;20054;-87
2021/11/15 04:29:35;;;;;;;3.42;1.15;;;1.20;91.30;;;;;;5078063;28;20017;-89
2021/11/15 04:32:03;;;;;;;1.65;0.60;;;1.20;91.30;;;;;;5079860;28;20024;-90
2021/11/15 04:34:29;;;;;;;2.80;1.45;;;1.10;90.60;;;;;;5080663;28;20032;-89
2021/11/15 04:36:55;;;;;;;2.78;1.27;;;1.00;91.80;;;;;;5092667;28;20005;-92
2021/11/15 04:39:22;;;;;;;2.50;1.10;;;0.80;92.70;;;;;;5098728;28;20078;-89
2021/11/15 04:41:48;;;;;;;2.67;0.90;;;0.60;93.10;;;;;;5088061;28;20048;-88
2021/11/15 04:44:14;;;;;;;1.10;0.65;;;0.50;93.20;;;;;;5083133;28;20029;-88
2021/11/15 04:46:40;;;;;;;1.15;0.93;;;0.50;93.00;;;;;;5089820;28;20004;-85
2021/11/15 04:49:07;;;;;;;0.73;0.60;;;0.50;92.60;;;;;;5099285;28;20040;-89
2021/11/15 04:51:33;;;;;;;1.05;0.68;;;0.50;92.30;;;;;;5080136;28;20428;-88
2021/11/15 04:53:59;;;;;;;0.60;0.60;;;0.50;91.90;;;;;;5076722;28;20020;-88
2021/11/15 04:56:25;;;;;;;0.75;0.65;;;0.50;91.70;;;;;;5077600;28;20090;-88
2021/11/15 04:58:52;;;;;;;1.17;0.65;;;0.60;91.50;;;;;;5076481;28;20380;-88
2021/11/15 05:01:18;;;;;;;1.58;0.63;;;0.60;91.30;;;;;;5075816;28;20020;-89
2021/11/15 05:03:45;;;;;;;0.90;0.88;;;0.60;91.10;;;;;;5077173;28;20043;-87
2021/11/15 05:06:11;;;;;;;3.00;0.90;;;0.70;90.90;;;;;;5076929;28;20017;-90
2021/11/15 05:08:37;;;;;;;0.98;0.55;;;0.70;90.70;;;;;;5077479;28;20199;-88
2021/11/15 05:11:03;;;;;;;2.88;0.80;;;0.70;90.20;;;;;;5083083;28;20017;-88
2021/11/15 05:13:29;;;;;;;0.52;0.52;;;0.70;89.00;;;;;;5091305;28;20039;-92
2021/11/15 05:15:55;;;;;;;4.47;1.20;;;0.80;88.90;;;;;;5076300;28;20457;-91
2021/11/15 05:18:21;;;;;;;1.35;0.65;;;0.80;87.10;;;;;;5080441;28;20099;-89
2021/11/15 05:20:47;;;;;;;1.55;0.93;;;0.80;87.60;;;;;;5089170;28;20017;-90
2021/11/15 05:23:14;;;;;;;0.63;0.60;;;0.80;87.40;;;;;;5097222;28;20093;-87
2021/11/15 05:25:42;;;;;;;0.60;0.60;;;0.90;87.90;;;;;;5089294;28;20027;-89
2021/11/15 05:28:10;;;;;;;1.30;0.60;;;0.90;87.40;;;;;;5065365;28;20033;-89
2021/11/15 05:30:37;;;;;;;1.85;0.65;;;0.90;86.60;;;;;;5039812;28;20033;-86
2021/11/15 05:33:02;;;;;;;2.83;0.73;;;0.90;86.00;;;;;;5076373;28;20064;-87
2021/11/15 05:35:28;;;;;;;1.23;0.63;;;0.90;86.00;;;;;;5076241;28;20031;-87
2021/11/15 05:37:56;;;;;;;0.90;0.70;;;1.00;86.60;;;;;;5075677;28;20024;-87
2021/11/15 05:40:25;;;;;;;1.25;0.90;;;1.00;86.90;;;;;;5076226;28;20021;-89
2021/11/15 05:42:52;;;;;;;1.15;1.05;;;1.10;87.00;;;;;;5074212;28;20044;-88
2021/11/15 05:45:18;;;;;;;3.13;1.13;;;1.10;86.70;;;;;;5076075;28;20020;-87
2021/11/15 05:47:44;;;;;;;1.50;0.70;;;1.10;86.80;;;;;;5075220;28;20426;-86
2021/11/15 05:50:11;;;;;;;0.73;0.73;;;1.10;86.60;;;;;;5074706;28;20165;-88
2021/11/15 05:52:42;;;;;;;0.77;0.65;;;1.10;86.00;;;;;;5078139;28;20060;-87
2021/11/15 05:55:10;;;;;;;1.38;0.77;;;1.10;85.30;;;;;;5081889;28;20024;-88
2021/11/15 05:57:36;;;;;;;1.20;0.93;;;1.10;85.80;;;;;;5079992;28;20496;-86
2021/11/15 06:00:05;;;;;;;1.00;0.95;;;1.10;85.50;;;;;;5080035;28;20020;-86
2021/11/15 06:02:30;;;;;;;1.63;0.75;;;1.10;85.50;;;;;;5075620;28;20056;-86
2021/11/15 06:04:56;;;;;;;1.40;1.00;;;1.10;85.50;;;;;;5075399;28;20029;-87
2021/11/15 06:07:22;;;;;;;2.15;1.17;;;1.10;85.10;;;;;;5084337;28;20500;-87
2021/11/15 06:09:49;;;;;;;1.25;1.13;;;1.20;84.90;;;;;;5095210;28;20036;-87
2021/11/15 06:12:15;;;;;;;4.70;1.23;;;1.20;84.60;;;;;;5093431;28;20041;-87
2021/11/15 06:14:41;;;;;;;1.95;1.25;;;1.20;84.20;;;;;;5087099;28;20034;-88
2021/11/15 06:17:07;;;;;;;1.60;1.15;;;1.10;84.30;;;;;;5081656;28;20096;-86
2021/11/15 06:19:33;;;;;;;1.77;1.38;;;1.00;84.70;;;;;;5090851;28;20095;-85
2021/11/15 06:22:00;;;;;;;2.53;1.27;;;1.00;85.30;;;;;;5085483;28;20028;-85
2021/11/15 06:24:26;;;;;;;1.42;1.27;;;1.00;85.40;;;;;;5082368;28;20119;-86
2021/11/15 06:26:52;;;;;;;1.60;1.35;;;1.00;85.30;;;;;;5082457;28;20441;-86
2021/11/15 06:29:19;;;;;;;2.78;1.40;;;1.00;85.70;;;;;;5075514;28;20028;-86
2021/11/15 06:31:45;;;;;;;1.83;1.42;;;1.00;85.70;;;;;;5081256;28;20039;-88
2021/11/15 06:34:11;;;;;;;4.68;1.23;;;1.10;85.80;;;;;;5076280;28;20473;-84
2021/11/15 06:36:36;;;;;;;2.60;1.55;;;1.20;85.80;;;;;;5073006;28;20036;-85
2021/11/15 06:39:04;;;;;;;4.80;2.05;;;1.20;85.70;;;;;;5055076;28;20136;-85
2021/11/15 06:41:29;;;;;;;4.07;1.98;;;1.30;85.50;;;;;;5054388;28;20036;-90
2021/11/15 06:43:56;;;;;;;2.60;1.77;;;1.30;84.70;;;;;;5071561;28;20042;-88
2021/11/15 06:46:23;;;;;;;5.65;1.95;;;1.20;85.10;;;;;;5074810;28;20020;-89
2021/11/15 06:48:49;;;;;;;3.55;2.03;;;1.30;85.50;;;;;;5074095;28;20076;-89
2021/11/15 06:51:15;;;;;;;4.63;2.30;;;1.40;85.50;;;;;;5075639;28;20025;-90
2021/11/15 06:53:42;;;;;;;5.63;1.77;;;1.50;85.00;;;;;;5074066;28;20029;-88
2021/11/15 06:56:08;;;;;;;1.77;1.65;;;1.50;84.80;;;;;;5079843;28;20013;-88
2021/11/15 06:58:35;;;;;;;2.88;1.98;;;1.50;83.80;;;;;;5077208;28;20052;-88
2021/11/15 07:01:02;;;;;;;2.53;1.60;;;1.50;83.30;;;;;;5073795;28;20020;-88
2021/11/15 07:03:28;;;;;;;4.57;2.55;;;1.50;83.40;;;;;;5078080;28;20029;-88
2021/11/15 07:05:53;;;;;;;3.75;2.80;;;1.50;83.70;;;;;;5083116;28;20021;-89
2021/11/15 07:08:19;;;;;;;5.30;2.65;;;1.60;84.00;;;;;;5089089;28;20080;-89
2021/11/15 07:10:45;;;;;;;5.40;2.17;;;1.60;83.60;;;;;;5080098;28;20092;-90
2021/11/15 07:13:15;;;;;;;1.70;1.48;;;1.60;83.10;;;;;;5079100;28;20032;-88
2021/11/15 07:15:42;;;;;;;3.65;1.98;;;1.70;82.80;;;;;;5074735;28;20017;-88
2021/11/15 07:18:08;;;;;;;2.13;1.92;;;1.70;82.70;;;;;;5074624;28;20031;-89
2021/11/15 07:20:36;;;;;;;2.20;1.42;;;1.70;82.60;;;;;;5075086;28;20115;-93
2021/11/15 07:23:02;;;;;;;2.30;1.50;;;1.80;82.20;;;;;;5085262;28;20032;-90
2021/11/15 07:25:38;;;;;;;3.13;1.50;;;1.70;82.00;;;;;;5083401;28;20145;-88
2021/11/15 07:28:04;;;;;;;2.72;1.75;;;1.70;82.10;;;;;;5073306;28;20269;-90
2021/11/15 07:30:30;;;;;;;1.98;1.70;;;1.80;82.30;;;;;;5068677;28;20074;-92
2021/11/15 07:32:57;;;;;;;6.28;2.28;;;1.90;82.20;;;;;;5076896;28;20040;-92
2021/11/15 07:35:23;;;;;;;;;;;1.90;82.10;;;;;;5074082;28;20023;-86
2021/11/15 07:37:49;;;;;;;3.38;1.80;;;2.00;82.20;;;;;;5073166;28;19908;-86
2021/11/15 07:40:19;;;;;;;3.40;1.80;;;1.90;81.60;;;;;;5073502;28;20418;-88
2021/11/15 07:42:45;;;;;;;4.57;2.05;;;1.80;82.00;;;;;;5077435;28;20098;-86
2021/11/15 07:45:12;;;;;;;3.05;1.50;;;1.80;82.40;;;;;;5073461;28;20020;-88
2021/11/15 07:47:40;;;;;;;1.80;1.38;;;1.80;82.60;;;;;;5073571;28;20465;-87
2021/11/15 07:50:06;;;;;;;2.65;1.95;;;1.80;82.10;;;;;;5074698;28;20052;-86
2021/11/15 07:52:32;;;;;;;2.70;1.42;;;1.90;82.20;;;;;;5082957;28;20029;-86
2021/11/15 07:55:01;;;;;;;6.20;1.98;;;1.80;82.00;;;;;;5081702;28;20059;-85
2021/11/15 07:57:27;;;;;;;2.75;1.63;;;1.80;82.30;;;;;;5073212;28;20085;-87
2021/11/15 07:59:53;;;;;;;2.13;1.35;;;1.80;82.60;;;;;;5071575;28;20551;-87
2021/11/15 08:02:19;;;;;;;2.20;1.60;;;1.80;82.30;;;;;;5073311;28;20508;-88
2021/11/15 08:04:48;;;;;;;2.47;1.67;;;1.80;82.70;;;;;;5077043;28;20025;-86
2021/11/15 08:07:15;;;;;;;4.95;2.38;;;2.00;82.80;;;;;;5079415;28;20027;-86
2021/11/15 08:09:41;;;;;;;3.10;1.70;;;2.00;81.90;;;;;;5077312;28;20013;-87
2021/11/15 08:12:09;;;;;;;2.47;1.83;;;2.00;81.50;;;;;;5077175;28;20029;-86
2021/11/15 08:14:35;;;;;;;;;;;2.00;81.20;;;;;;5077127;28;20374;-86
2021/11/15 08:17:02;;;;;;;3.17;1.70;;;2.10;81.80;;;;;;5076572;28;19944;-86
2021/11/15 08:19:28;;;;;;;2.28;1.90;;;2.20;81.20;;;;;;5076065;28;20473;-86
2021/11/15 08:21:55;;;;;;;1.50;1.40;;;2.20;80.30;;;;;;5076018;28;20447;-87
2021/11/15 08:24:25;;;;;;;3.30;2.13;;;2.10;80.30;;;;;;5075981;28;20047;-86
2021/11/15 08:27:00;;;;;;;1.80;1.42;;;2.00;80.80;;;;;;5076587;28;20408;-87
2021/11/15 08:29:28;;;;;;;2.17;1.45;;;1.90;81.40;;;;;;5075912;28;20033;-87
2021/11/15 08:32:06;;;;;;;4.80;1.63;;;1.90;81.40;;;;;;5078666;28;20031;-85
2021/11/15 08:34:34;;;;;;;2.58;2.10;;;1.80;81.40;;;;;;5066780;28;20439;-87
2021/11/15 08:37:01;;;;;;;8.85;2.20;;;1.70;80.90;;;;;;5069220;28;20088;-88
2021/11/15 08:39:29;;;;;;;7.10;2.35;;;1.70;81.70;;;;;;5065834;28;20032;-87
2021/11/15 08:41:58;;;;;;;3.70;2.00;;;1.70;82.20;;;;;;5060912;28;20048;-86
2021/11/15 08:44:27;;;;;;;4.88;2.00;;;1.80;82.20;;;;;;5057078;28;20420;-86
2021/11/15 08:46:55;;;;;;;3.60;2.13;;;1.90;81.90;;;;;;5057192;28;20362;-90
2021/11/15 08:49:23;;;;;;;3.05;1.90;;;2.00;81.30;;;;;;5056190;28;20033;-85
2021/11/15 08:51:49;;;;;;;2.78;1.75;;;1.90;81.30;;;;;;5055977;28;20074;-86
2021/11/15 08:54:18;;;;;;;5.18;3.08;;;1.90;81.60;;;;;;5056585;28;20108;-87
2021/11/15 08:56:46;;;;;;;4.47;2.20;;;2.00;81.50;;;;;;5054231;28;20070;-88
2021/11/15 08:59:12;;;;;;;3.83;1.92;;;2.00;81.60;;;;;;5055774;28;20033;-85
2021/11/15 09:01:40;;;;;;;2.25;1.63;;;2.00;81.50;;;;;;5057951;28;20043;-86
2021/11/15 09:04:08;;;;;;;3.58;2.33;;;2.00;81.20;;;;;;5058883;28;20037;-87
2021/11/15 09:06:35;;;;;;;4.25;2.05;;;2.00;81.00;;;;;;5056780;28;20135;-88
2021/11/15 09:09:04;;;;;;;4.43;2.20;;;1.90;80.90;;;;;;5058102;28;20029;-88
2021/11/15 09:11:30;;;;;;;4.78;2.50;;;1.90;81.60;;;;;;5058617;28;20025;-87
2021/11/15 09:13:57;;;;;;;4.38;2.03;;;1.90;81.90;;;;;;5056446;28;20029;-87
2021/11/15 09:16:24;;;;;;;1.77;1.10;;;1.90;81.60;;;;;;5056644;28;20084;-86
2021/11/15 09:18:50;;;;;;;2.45;2.10;;;2.00;81.20;;;;;;5059832;28;20029;-85
2021/11/15 09:21:16;;;;;;;3.75;1.50;;;2.00;81.10;;;;;;5059290;28;20028;-86
2021/11/15 09:23:44;;;;;;;2.35;1.85;;;2.00;80.40;;;;;;5063155;28;20033;-86
2021/11/15 09:26:12;;;;;;;3.50;2.10;;;1.90;80.50;;;;;;5064702;28;20116;-87
2021/11/15 09:28:39;;;;;;;4.85;2.03;;;1.90;80.50;;;;;;5057897;28;20052;-87
2021/11/15 09:31:07;;;;;;;3.63;1.30;;;1.90;80.50;;;;;;5055735;28;20475;-86
2021/11/15 09:33:33;;;;;;;1.83;1.38;;;2.00;80.50;;;;;;5072220;28;20082;-87
2021/11/15 09:35:59;;;;;;;5.63;2.00;;;2.00;80.30;;;;;;5074787;28;20025;-86
2021/11/15 09:38:27;;;;;;;2.72;1.90;;;2.10;80.30;;;;;;5074678;28;20096;-87
2021/11/15 09:40:57;;;;;;;2.55;1.73;;;2.10;80.20;;;;;;5074365;28;20455;-86
2021/11/15 09:43:25;;;;;;;4.32;2.03;;;2.10;80.10;;;;;;5073397;28;20169;-88
2021/11/15 09:45:52;;;;;;;2.72;1.70;;;2.10;79.90;;;;;;5074257;28;20031;-89
2021/11/15 09:48:18;;;;;;;2.80;1.70;;;2.10;80.40;;;;;;5074552;28;20492;-88
2021/11/15 09:50:44;;;;;;;5.05;2.03;;;2.10;80.40;;;;;;5074202;28;20035;-88
2021/11/15 09:53:10;;;;;;;3.50;1.48;;;2.20;80.10;;;;;;5074711;28;20024;-87
2021/11/15 09:55:37;;;;;;;9.18;4.45;;;2.20;79.30;;;;;;5074911;28;20024;-90
2021/11/15 09:58:03;;;;;;;3.08;2.13;;;2.20;79.30;;;;;;5074362;28;20112;-88
2021/11/15 10:00:33;;;;;;;3.95;1.83;;;2.20;79.50;;;;;;5074908;28;20076;-87
2021/11/15 10:03:02;;;;;;;5.22;1.92;;;2.20;79.40;;;;;;5074800;28;20032;-85
2021/11/15 10:05:28;;;;;;;3.83;2.00;;;2.10;79.60;;;;;;5073386;28;20117;-84
2021/11/15 10:07:56;;;;;;;2.93;2.20;;;2.20;79.80;;;;;;5074748;28;20021;-86
2021/11/15 10:10:58;;;;;;;3.35;2.92;;;2.20;79.90;;;;;;5074168;28;20012;-88
2021/11/15 10:13:29;;;;;;;4.75;1.92;;;2.30;79.60;;;;;;5053081;28;20021;-88
2021/11/15 10:16:14;;;;;;;5.28;1.98;;;2.20;79.40;;;;;;5036927;28;20095;-90
2021/11/15 10:18:57;;;;;;;5.10;2.13;;;2.20;79.60;;;;;;5053461;28;20532;-87
2021/11/15 10:21:28;;;;;;;3.45;1.70;;;2.20;79.50;;;;;;5052469;28;20033;-86
2021/11/15 10:24:00;;;;;;;3.10;1.55;;;2.20;79.10;;;;;;5052015;28;20482;-87
2021/11/15 10:26:40;;;;;;;6.03;1.70;;;2.20;79.40;;;;;;5052659;28;20124;-87
2021/11/15 10:29:08;;;;;;;4.53;2.00;;;2.30;79.40;;;;;;5052643;28;20486;-87
2021/11/15 10:31:45;;;;;;;4.18;1.90;;;2.30;79.20;;;;;;5052497;28;20430;-87
2021/11/15 10:34:26;;;;;;;4.00;1.80;;;2.30;78.70;;;;;;5052956;28;20099;-87
2021/11/15 10:37:14;;;;;;;3.38;1.83;;;2.30;78.60;;;;;;5052912;28;20040;-86
2021/11/15 10:39:50;;;;;;;4.60;2.17;;;2.40;78.30;;;;;;5051891;28;20029;-88
2021/11/15 10:42:19;;;;;;;2.65;1.73;;;2.40;78.20;;;;;;5034884;28;20573;-88
2021/11/15 10:44:50;;;;;;;4.85;1.55;;;2.40;77.80;;;;;;5051592;28;20044;-88
2021/11/15 10:47:18;;;;;;;3.08;1.83;;;2.40;77.30;;;;;;5062113;28;20032;-88
2021/11/15 10:49:46;;;;;;;6.70;2.30;;;2.40;77.50;;;;;;5074719;28;20108;-87
2021/11/15 10:52:18;;;;;;;4.05;1.60;;;2.30;78.00;;;;;;5079200;28;20108;-87
2021/11/15 10:55:00;;;;;;;3.97;2.15;;;2.30;78.20;;;;;;5089423;28;20020;-85
2021/11/15 10:57:31;;;;;;;3.60;1.40;;;2.30;78.30;;;;;;5086028;28;20016;-87
2021/11/15 11:00:06;;;;;;;2.67;1.73;;;2.20;78.80;;;;;;5083888;28;20040;-86
2021/11/15 11:02:44;;;;;;;3.38;1.27;;;2.20;78.80;;;;;;5077503;28;20037;-85
2021/11/15 11:05:14;;;;;;;2.70;1.60;;;2.20;79.20;;;;;;5076474;28;20025;-85
2021/11/15 11:07:43;;;;;;;4.97;1.90;;;2.20;78.50;;;;;;5079492;28;20020;-85
2021/11/15 11:10:18;;;;;;;4.15;1.77;;;2.10;78.20;;;;;;5075119;28;20485;-87
2021/11/15 11:12:58;;;;;;;3.97;2.17;;;2.10;78.40;;;;;;5074482;28;20105;-86
2021/11/15 11:15:40;;;;;;;2.28;1.63;;;2.10;78.50;;;;;;5076784;28;20535;-86
2021/11/15 11:18:12;;;;;;;6.05;2.08;;;2.10;78.10;;;;;;5075811;28;20025;-88
2021/11/15 11:26:19;;;;;;;4.90;2.38;;;2.10;78.10;;;;;;5093332;28;20027;-87
2021/11/15 11:28:57;;;;;;;2.90;1.63;;;2.20;78.50;;;;;;5077601;28;20155;-90
2021/11/15 11:31:28;;;;;;;5.30;2.00;;;2.20;78.50;;;;;;5074838;28;20017;-89
2021/11/15 11:33:55;;;;;;;4.95;1.77;;;2.20;78.60;;;;;;5073618;28;20028;-87
2021/11/15 11:36:21;;;;;;;2.95;1.77;;;2.20;78.20;;;;;;5074762;28;20017;-86
2021/11/15 11:38:48;;;;;;;4.90;1.67;;;2.20;78.20;;;;;;5073704;28;20051;-87
2021/11/15 11:41:16;;;;;;;3.88;2.08;;;2.20;77.90;;;;;;5075990;28;20036;-91
2021/11/15 11:43:42;;;;;;;;;;;2.10;77.80;;;;;;5079063;28;20071;-88
2021/11/15 11:46:10;;;;;;;3.13;1.42;;;2.20;78.30;;;;;;5078793;28;20380;-89
2021/11/15 11:48:37;;;;;;;3.10;1.83;;;2.20;78.00;;;;;;5077956;28;20024;-87
2021/11/15 11:51:03;;;;;;;2.97;1.65;;;2.10;77.90;;;;;;5078309;28;20060;-88
2021/11/15 11:53:33;;;;;;;4.28;2.00;;;2.10;77.70;;;;;;5078121;28;20035;-87
2021/11/15 11:56:11;;;;;;;3.33;1.17;;;2.10;78.00;;;;;;5078153;28;20035;-87
2021/11/15 11:58:39;;;;;;;3.00;1.58;;;2.00;78.20;;;;;;5079949;28;20013;-89
2021/11/15 12:01:17;;;;;;;2.00;1.30;;;2.00;78.30;;;;;;5075892;28;20025;-88
2021/11/15 12:04:16;;;;;;;3.15;1.70;;;2.00;78.50;;;;;;5078760;28;20029;-90
2021/11/15 12:06:46;;;;;;;2.80;1.98;;;2.00;78.70;;;;;;5076833;28;20073;-86
2021/11/15 12:09:16;;;;;;;4.30;1.83;;;2.00;78.80;;;;;;5077107;28;20052;-86
2021/11/15 12:11:56;;;;;;;3.60;1.42;;;2.00;78.90;;;;;;5076051;28;20107;-89
2021/11/15 12:14:48;;;;;;;2.17;1.67;;;2.00;79.00;;;;;;5077069;28;20430;-86
2021/11/15 12:17:20;;;;;;;4.28;1.83;;;2.00;79.00;;;;;;5075455;28;20064;-89
2021/11/15 12:19:50;;;;;;;5.75;2.53;;;1.90;79.00;;;;;;5075780;28;20117;-87
2021/11/15 12:22:24;;;;;;;5.05;1.70;;;1.90;79.20;;;;;;5079773;28;20051;-85
2021/11/15 12:25:08;;;;;;;6.50;2.15;;;1.90;79.40;;;;;;5078409;28;20477;-90
2021/11/15 12:28:00;;;;;;;4.63;2.30;;;1.90;79.60;;;;;;5079108;28;20036;-85
2021/11/15 12:30:42;;;;;;;3.65;2.17;;;1.90;80.10;;;;;;5073121;28;20371;-88
2021/11/15 12:33:09;;;;;;;7.10;2.50;;;1.80;81.00;;;;;;5057409;28;20338;-89
2021/11/15 12:35:50;;;;;;;2.45;1.38;;;1.80;81.20;;;;;;5060278;28;20021;-86
2021/11/15 12:38:33;;;;;;;4.43;1.73;;;1.80;81.30;;;;;;5057948;28;20021;-88
2021/11/15 12:41:00;;;;;;;4.20;1.60;;;1.80;81.20;;;;;;5057451;28;20128;-90
2021/11/15 12:43:26;;;;;;;6.50;2.07;;;1.70;81.30;;;;;;5056524;28;20051;-88
2021/11/15 12:46:10;;;;;;;3.97;2.13;;;1.80;81.40;;;;;;5057730;28;20250;-89
2021/11/15 12:48:47;;;;;;;5.20;2.38;;;1.80;81.40;;;;;;5057042;28;20029;-89
2021/11/15 12:51:23;;;;;;;4.63;2.40;;;1.80;81.10;;;;;;5056829;28;20071;-88
2021/11/15 12:53:52;;;;;;;2.88;1.85;;;1.80;81.10;;;;;;5060427;28;20029;-88
2021/11/15 12:56:22;;;;;;;3.60;2.03;;;1.70;80.80;;;;;;5060740;28;20103;-88
2021/11/15 12:58:50;;;;;;;5.82;1.70;;;1.70;80.60;;;;;;5056342;28;20057;-86
2021/11/15 13:01:21;;;;;;;4.47;2.33;;;1.60;80.70;;;;;;5056961;28;20385;-87
2021/11/15 13:03:49;;;;;;;5.20;2.13;;;1.50;80.90;;;;;;5057073;28;20033;-88
2021/11/15 13:06:16;;;;;;;5.15;2.25;;;1.60;81.20;;;;;;5057481;28;20104;-88
2021/11/15 13:08:44;;;;;;;3.55;2.20;;;1.60;81.00;;;;;;5062795;28;20025;-86
2021/11/15 13:11:11;;;;;;;2.38;1.67;;;1.60;80.70;;;;;;5086957;28;20080;-87